createdAt,value
2023-12-10T00:00:29.128Z,6.07
2023-12-10T00:02:58.338Z,3.45
2023-12-10T00:05:26.400Z,3.73
2023-12-10T00:07:54.274Z,3.85
2023-12-10T00:10:22.180Z,5.13
2023-12-10T00:12:50.064Z,4.78
2023-12-10T00:15:18.533Z,4.93
2023-12-10T00:17:46.425Z,3.78
2023-12-10T00:20:16.661Z,4.82
2023-12-10T00:22:46.068Z,5.43
2023-12-10T00:25:14.054Z,5.05
2023-12-10T00:27:42.123Z,2.83
2023-12-10T00:30:11.138Z,5.18
2023-12-10T00:32:39.256Z,4.83
2023-12-10T00:35:08.130Z,5.13
2023-12-10T00:37:37.418Z,4.03
2023-12-10T00:40:07.343Z,4.20
2023-12-10T00:45:03.180Z,4.70
2023-12-10T00:47:31.149Z,6.43
2023-12-10T00:49:59.025Z,6.53
2023-12-10T00:52:27.705Z,4.55
2023-12-10T00:54:57.110Z,7.22
2023-12-10T00:57:25.092Z,4.30
2023-12-10T00:59:52.962Z,5.93
2023-12-10T01:02:21.329Z,5.28
2023-12-10T01:04:49.306Z,4.68
2023-12-10T01:07:17.805Z,4.35
2023-12-10T01:09:45.817Z,6.60
2023-12-10T01:12:15.170Z,7.00
2023-12-10T01:14:45.159Z,6.40
2023-12-10T01:19:41.611Z,8.88
2023-12-10T01:22:09.520Z,6.22
2023-12-10T01:24:37.432Z,5.10
2023-12-10T01:27:05.973Z,5.28
2023-12-10T01:29:35.254Z,5.88
2023-12-10T01:32:05.254Z,8.43
2023-12-10T01:37:01.194Z,7.80
2023-12-10T01:39:29.729Z,7.82
2023-12-10T01:41:57.823Z,6.72
2023-12-10T01:44:25.885Z,7.50
2023-12-10T01:46:55.623Z,8.82
2023-12-10T01:49:26.510Z,7.45
2023-12-10T01:51:54.495Z,5.70
2023-12-10T01:54:24.100Z,6.60
2023-12-10T01:56:59.948Z,8.80
2023-12-10T01:59:35.941Z,7.38
2023-12-10T02:02:06.477Z,8.13
2023-12-10T02:04:34.721Z,6.65
2023-12-10T02:07:02.746Z,6.43
2023-12-10T02:09:30.645Z,6.18
2023-12-10T02:11:58.675Z,6.32
2023-12-10T02:14:26.580Z,9.00
2023-12-10T02:16:54.460Z,8.18
2023-12-10T02:19:23.748Z,9.57
2023-12-10T02:21:53.730Z,9.23
2023-12-10T02:26:53.599Z,7.90
2023-12-10T02:29:21.512Z,8.93
2023-12-10T02:31:49.395Z,6.47
2023-12-10T02:34:17.352Z,8.77
2023-12-10T02:36:45.368Z,11.00
2023-12-10T02:39:13.558Z,11.27
2023-12-10T02:41:42.071Z,11.50
2023-12-10T02:44:11.446Z,14.23
2023-12-10T02:46:39.486Z,9.52
2023-12-10T02:49:07.388Z,12.52
2023-12-10T02:51:35.335Z,10.18
2023-12-10T02:54:03.488Z,12.38
2023-12-10T02:56:31.659Z,9.02
2023-12-10T02:58:59.695Z,10.63
2023-12-10T03:01:30.389Z,9.10
2023-12-10T03:03:58.296Z,8.73
2023-12-10T03:06:26.209Z,9.90
2023-12-10T03:08:54.194Z,7.28
2023-12-10T03:11:22.120Z,7.32
2023-12-10T03:13:50.085Z,8.63
2023-12-10T03:16:17.972Z,9.15
2023-12-10T03:18:48.543Z,6.25
2023-12-10T03:21:16.484Z,8.23
2023-12-10T03:23:44.383Z,4.63
2023-12-10T03:26:12.285Z,8.80
2023-12-10T03:28:40.236Z,9.43
2023-12-10T03:31:08.341Z,8.98
2023-12-10T03:33:36.425Z,9.63
2023-12-10T03:36:06.694Z,8.80
2023-12-10T03:38:34.808Z,7.88
2023-12-10T03:41:03.230Z,9.27
2023-12-10T03:43:31.159Z,6.50
2023-12-10T03:45:59.055Z,7.22
2023-12-10T03:48:27.352Z,5.35
2023-12-10T03:50:55.317Z,6.07
2023-12-10T03:53:24.548Z,7.72
2023-12-10T03:55:52.406Z,7.33
2023-12-10T03:58:20.279Z,6.70
2023-12-10T04:00:48.307Z,8.13
2023-12-10T04:03:16.380Z,7.93
2023-12-10T04:05:44.362Z,5.45
2023-12-10T04:08:12.271Z,7.20
2023-12-10T04:10:41.667Z,6.60
2023-12-10T04:13:09.713Z,6.30
2023-12-10T04:15:37.620Z,7.28
2023-12-10T04:18:06.565Z,8.68
2023-12-10T04:20:34.542Z,6.63
2023-12-10T04:23:02.383Z,6.82
2023-12-10T04:25:30.226Z,7.68
2023-12-10T04:27:59.545Z,7.13
2023-12-10T04:30:28.012Z,8.48
2023-12-10T04:32:56.151Z,7.22
2023-12-10T04:35:24.059Z,5.65
2023-12-10T04:37:51.917Z,6.03
2023-12-10T04:40:19.855Z,5.68
2023-12-10T04:42:47.798Z,8.55
2023-12-10T04:45:18.949Z,6.63
2023-12-10T04:47:46.992Z,5.72
2023-12-10T04:50:15.326Z,7.45
2023-12-10T04:52:43.198Z,5.55
2023-12-10T04:55:11.046Z,8.50
2023-12-10T04:57:38.940Z,6.85
2023-12-10T05:00:09.453Z,7.00
2023-12-10T05:02:38.867Z,7.53
2023-12-10T05:05:08.835Z,6.47
2023-12-10T05:10:05.611Z,5.97
2023-12-10T05:12:33.764Z,6.45
2023-12-10T05:15:01.847Z,6.05
2023-12-10T05:17:29.782Z,5.00
2023-12-10T05:19:59.057Z,7.25
2023-12-10T05:22:27.666Z,5.63
2023-12-10T05:24:55.808Z,5.07
2023-12-10T05:27:23.824Z,4.72
2023-12-10T05:29:53.845Z,6.05
2023-12-10T05:34:51.409Z,6.38
2023-12-10T05:37:21.080Z,5.47
2023-12-10T05:39:49.068Z,5.45
2023-12-10T05:42:17.068Z,7.03
2023-12-10T05:44:44.954Z,7.90
2023-12-10T05:47:12.960Z,5.60
2023-12-10T05:49:40.902Z,5.28
2023-12-10T05:52:08.765Z,4.93
2023-12-10T05:54:39.726Z,4.50
2023-12-10T05:57:07.657Z,5.13
2023-12-10T05:59:35.511Z,5.45
2023-12-10T06:02:03.739Z,3.72
2023-12-10T06:04:31.814Z,4.07
2023-12-10T06:06:59.854Z,4.97
2023-12-10T06:09:27.918Z,5.82
2023-12-10T06:11:57.190Z,3.72
2023-12-10T06:14:25.064Z,4.73
2023-12-10T06:16:52.911Z,5.65
2023-12-10T06:19:20.838Z,4.07
2023-12-10T06:21:48.845Z,5.25
2023-12-10T06:24:16.913Z,4.38
2023-12-10T06:26:44.827Z,5.18
2023-12-10T06:29:14.040Z,6.72
2023-12-10T06:31:41.951Z,4.80
2023-12-10T06:34:10.326Z,5.15
2023-12-10T06:36:38.472Z,6.47
2023-12-10T06:39:07.742Z,4.93
2023-12-10T06:41:39.273Z,5.33
2023-12-10T06:44:10.569Z,4.85
2023-12-10T06:46:39.970Z,5.07
2023-12-10T06:49:08.022Z,6.45
2023-12-10T06:51:36.037Z,8.52
2023-12-10T06:54:03.952Z,6.68
2023-12-10T06:56:31.932Z,5.57
2023-12-10T06:58:59.836Z,8.32
2023-12-10T07:01:31.750Z,7.25
2023-12-10T07:04:01.516Z,5.55
2023-12-10T07:06:30.919Z,3.65
2023-12-10T07:08:58.935Z,6.45
2023-12-10T07:11:26.818Z,5.50
2023-12-10T07:13:54.973Z,6.50
2023-12-10T07:16:22.813Z,8.10
2023-12-10T07:18:50.918Z,8.00
2023-12-10T07:21:20.227Z,6.70
2023-12-10T07:23:48.090Z,6.17
2023-12-10T07:26:17.280Z,7.15
2023-12-10T07:28:45.131Z,8.77
2023-12-10T07:31:12.994Z,5.88
2023-12-10T07:33:40.967Z,8.15
2023-12-10T07:36:09.993Z,6.95
2023-12-10T07:38:39.256Z,6.97
2023-12-10T07:41:07.391Z,6.67
2023-12-10T07:43:35.394Z,7.20
2023-12-10T07:46:06.053Z,8.05
2023-12-10T07:48:35.814Z,9.90
2023-12-10T07:51:03.923Z,7.38
2023-12-10T07:53:31.817Z,6.53
2023-12-10T07:56:01.033Z,9.93
2023-12-10T07:58:28.895Z,7.10
2023-12-10T08:00:56.984Z,6.95
2023-12-10T08:03:25.001Z,8.30
2023-12-10T08:05:53.165Z,6.40
2023-12-10T08:08:21.060Z,7.60
2023-12-10T08:10:49.698Z,9.35
2023-12-10T08:13:19.685Z,7.90
2023-12-10T08:15:47.833Z,7.40
2023-12-10T08:18:16.064Z,8.20
2023-12-10T08:20:44.285Z,7.10
2023-12-10T08:23:12.253Z,8.52
2023-12-10T08:25:40.137Z,6.80
2023-12-10T08:28:08.542Z,7.13
2023-12-10T08:30:37.805Z,7.10
2023-12-10T08:33:06.001Z,9.70
2023-12-10T08:35:33.917Z,7.22
2023-12-10T08:38:01.764Z,6.88
2023-12-10T08:40:29.627Z,7.45
2023-12-10T08:42:59.684Z,6.50
2023-12-10T08:45:27.881Z,8.38
2023-12-10T08:47:57.139Z,7.22
2023-12-10T08:50:25.049Z,7.97
2023-12-10T08:52:52.924Z,6.75
2023-12-10T08:55:20.969Z,8.43
2023-12-10T08:57:48.952Z,7.47
2023-12-10T09:00:18.045Z,11.55
2023-12-10T09:02:45.961Z,11.40
2023-12-10T09:05:15.678Z,11.45
2023-12-10T09:07:43.803Z,12.25
2023-12-10T09:10:13.124Z,10.63
2023-12-10T09:12:41.727Z,13.00
2023-12-10T09:15:10.891Z,13.40
2023-12-10T09:17:38.961Z,13.33
2023-12-10T09:20:08.342Z,8.95
2023-12-10T09:22:37.685Z,11.90
2023-12-10T09:25:06.180Z,11.95
2023-12-10T09:27:34.099Z,9.05
2023-12-10T09:30:02.686Z,9.77
2023-12-10T09:32:31.105Z,10.55
2023-12-10T09:35:01.777Z,10.20
2023-12-10T09:37:30.292Z,9.57
2023-12-10T09:39:59.545Z,8.95
2023-12-10T09:42:28.557Z,8.80
2023-12-10T09:44:56.712Z,11.83
2023-12-10T09:47:27.420Z,7.50
2023-12-10T09:49:56.554Z,8.02
2023-12-10T09:52:24.982Z,10.00
2023-12-10T09:54:54.520Z,8.80
2023-12-10T09:57:23.871Z,8.30
2023-12-10T09:59:52.004Z,7.57
2023-12-10T10:02:19.865Z,8.98
2023-12-10T10:04:48.425Z,7.65
2023-12-10T10:07:16.667Z,8.02
2023-12-10T10:09:45.754Z,6.43
2023-12-10T10:12:14.859Z,7.97
2023-12-10T10:14:55.945Z,5.90
2023-12-10T10:17:32.913Z,8.10
2023-12-10T10:20:02.022Z,9.18
2023-12-10T10:22:30.305Z,8.57
2023-12-10T10:24:58.884Z,7.45
2023-12-10T10:27:28.394Z,8.90
2023-12-10T10:29:58.725Z,6.45
2023-12-10T10:32:26.884Z,7.03
2023-12-10T10:34:56.827Z,7.50
2023-12-10T10:39:53.677Z,5.68
2023-12-10T10:42:21.890Z,8.50
2023-12-10T10:44:49.955Z,7.63
2023-12-10T10:47:20.192Z,5.85
2023-12-10T10:50:19.574Z,4.95
2023-12-10T10:52:43.333Z,6.25
2023-12-10T10:57:40.360Z,9.25
2023-12-10T11:00:36.131Z,8.10
2023-12-10T11:03:09.012Z,7.25
2023-12-10T11:05:38.125Z,7.18
2023-12-10T11:08:07.237Z,11.80
2023-12-10T11:10:35.413Z,13.37
2023-12-10T11:13:03.734Z,12.95
2023-12-10T11:15:32.613Z,11.82
2023-12-10T11:18:02.397Z,13.10
2023-12-10T11:20:34.308Z,13.60
2023-12-10T11:23:04.493Z,11.93
2023-12-10T11:25:32.793Z,12.57
2023-12-10T11:28:03.160Z,13.57
2023-12-10T11:30:31.336Z,13.93
2023-12-10T11:32:59.489Z,12.88
2023-12-10T11:35:27.436Z,16.52
2023-12-10T11:37:56.768Z,10.95
2023-12-10T11:40:24.933Z,11.37
2023-12-10T11:42:52.862Z,10.57
2023-12-10T11:45:20.793Z,12.77
2023-12-10T11:47:49.644Z,10.23
2023-12-10T11:50:17.605Z,8.18
2023-12-10T11:52:46.350Z,10.02
2023-12-10T11:55:16.238Z,9.85
2023-12-10T11:57:45.038Z,8.23
2023-12-10T12:00:14.573Z,9.73
2023-12-10T12:02:43.910Z,7.82
2023-12-10T12:05:17.128Z,8.05
2023-12-10T12:07:45.925Z,9.00
2023-12-10T12:10:15.187Z,7.68
2023-12-10T12:12:44.749Z,8.43
2023-12-10T12:15:13.531Z,8.57
2023-12-10T12:17:42.753Z,6.78
2023-12-10T12:20:18.213Z,9.17
2023-12-10T12:22:48.853Z,7.70
2023-12-10T12:25:20.815Z,8.20
2023-12-10T12:27:49.102Z,9.18
2023-12-10T12:30:20.920Z,7.03
2023-12-10T12:32:49.058Z,8.00
2023-12-10T12:35:17.065Z,6.35
2023-12-10T12:37:45.030Z,9.25
2023-12-10T12:40:14.393Z,8.68
2023-12-10T12:42:43.666Z,7.22
2023-12-10T12:45:12.078Z,6.35
2023-12-10T12:47:40.267Z,7.88
2023-12-10T12:50:09.313Z,6.90
2023-12-10T12:52:37.405Z,8.23
2023-12-10T12:55:06.171Z,5.38
2023-12-10T12:57:34.364Z,9.02
2023-12-10T13:00:05.848Z,7.65
2023-12-10T13:02:33.902Z,8.77
2023-12-10T13:05:02.095Z,9.10
2023-12-10T13:07:30.364Z,8.15
2023-12-10T13:09:59.664Z,8.32
2023-12-10T13:12:29.186Z,9.82
2023-12-10T13:14:57.160Z,6.07
2023-12-10T13:17:27.287Z,6.97
2023-12-10T13:19:55.466Z,9.27
2023-12-10T13:22:23.382Z,8.48
2023-12-10T13:24:51.276Z,6.80
2023-12-10T13:27:22.216Z,7.25
2023-12-10T13:29:51.489Z,10.02
2023-12-10T13:32:19.437Z,8.10
2023-12-10T13:34:48.774Z,7.95
2023-12-10T13:37:16.710Z,6.03
2023-12-10T13:39:44.705Z,8.57
2023-12-10T13:42:12.575Z,9.57
2023-12-10T13:44:40.479Z,7.90
2023-12-10T13:47:09.156Z,8.05
2023-12-10T13:49:37.131Z,6.95
2023-12-10T13:52:06.722Z,6.28
2023-12-10T13:54:34.720Z,7.88
2023-12-10T13:57:02.620Z,7.53
2023-12-10T13:59:30.819Z,8.32
2023-12-10T14:01:58.696Z,5.95
2023-12-10T14:04:26.661Z,6.15
2023-12-10T14:06:54.654Z,6.18
2023-12-10T14:09:23.989Z,5.72
2023-12-10T14:11:51.905Z,7.13
2023-12-10T14:14:19.816Z,6.28
2023-12-10T14:16:47.968Z,7.00
2023-12-10T14:19:16.020Z,6.93
2023-12-10T14:21:44.043Z,5.85
2023-12-10T14:24:12.738Z,6.45
2023-12-10T14:26:42.084Z,6.68
2023-12-10T14:29:10.188Z,7.40
2023-12-10T14:31:38.096Z,12.02
2023-12-10T14:34:06.800Z,12.13
2023-12-10T14:36:35.267Z,12.73
2023-12-10T14:39:03.743Z,9.70
2023-12-10T14:41:31.612Z,12.82
2023-12-10T14:44:00.991Z,10.35
2023-12-10T14:46:29.649Z,9.07
2023-12-10T14:48:57.758Z,12.50
2023-12-10T14:51:25.720Z,12.10
2023-12-10T14:53:53.665Z,12.20
2023-12-10T14:56:21.619Z,8.95
2023-12-10T14:58:50.477Z,11.45
2023-12-10T15:01:20.263Z,9.98
2023-12-10T15:03:48.328Z,11.45
2023-12-10T15:06:16.709Z,11.00
2023-12-10T15:08:44.581Z,11.05
2023-12-10T15:11:12.459Z,9.30
2023-12-10T15:13:40.376Z,10.65
2023-12-10T15:16:09.604Z,7.18
2023-12-10T15:18:39.235Z,11.68
2023-12-10T15:21:07.528Z,8.00
2023-12-10T15:23:35.370Z,8.65
2023-12-10T15:26:03.625Z,8.05
2023-12-10T15:28:32.824Z,12.45
2023-12-10T15:31:01.129Z,8.93
2023-12-10T15:33:30.189Z,11.50
2023-12-10T15:35:59.569Z,11.17
2023-12-10T15:38:27.444Z,9.18
2023-12-10T15:40:55.570Z,8.23
2023-12-10T15:43:23.433Z,7.78
2023-12-10T15:45:51.327Z,8.23
2023-12-10T15:48:19.294Z,8.07
2023-12-10T15:50:47.748Z,7.82
2023-12-10T15:53:16.974Z,8.43
2023-12-10T15:55:44.972Z,8.83
2023-12-10T15:58:13.340Z,8.57
2023-12-10T16:00:41.329Z,8.07
2023-12-10T16:03:09.967Z,8.02
2023-12-10T16:05:38.013Z,7.53
2023-12-10T16:08:06.182Z,9.65
2023-12-10T16:10:35.428Z,10.75
2023-12-10T16:13:03.386Z,8.47
2023-12-10T16:15:31.311Z,6.93
2023-12-10T16:17:59.224Z,7.63
2023-12-10T16:20:27.378Z,9.05
2023-12-10T16:22:55.227Z,6.97
2023-12-10T16:25:23.112Z,7.60
2023-12-10T16:27:52.339Z,8.77
2023-12-10T16:30:21.358Z,12.37
2023-12-10T16:32:50.585Z,7.07
2023-12-10T16:35:18.665Z,9.02
2023-12-10T16:37:46.561Z,8.02
2023-12-10T16:40:15.831Z,8.00
2023-12-10T16:42:43.996Z,8.98
2023-12-10T16:45:13.813Z,8.30
2023-12-10T16:47:42.005Z,8.85
2023-12-10T16:50:10.953Z,7.20
2023-12-10T16:52:40.594Z,7.95
2023-12-10T16:55:12.688Z,7.88
2023-12-10T16:57:41.226Z,8.20
2023-12-10T17:00:11.098Z,7.28
2023-12-10T17:05:10.436Z,8.25
2023-12-10T17:07:38.548Z,7.78
2023-12-10T17:10:07.278Z,8.98
2023-12-10T17:12:35.307Z,8.73
2023-12-10T17:15:03.238Z,11.52
2023-12-10T17:17:31.479Z,9.30
2023-12-10T17:20:01.232Z,8.65
2023-12-10T17:22:29.352Z,7.72
2023-12-10T17:24:57.241Z,9.23
2023-12-10T17:27:25.513Z,7.75
2023-12-10T17:29:53.412Z,10.13
2023-12-10T17:32:21.277Z,11.23
2023-12-10T17:34:49.497Z,10.40
2023-12-10T17:37:18.860Z,9.20
2023-12-10T17:39:46.784Z,10.43
2023-12-10T17:42:15.046Z,7.68
2023-12-10T17:44:50.525Z,6.55
2023-12-10T17:47:24.733Z,7.88
2023-12-10T17:49:53.006Z,11.43
2023-12-10T17:52:22.392Z,8.18
2023-12-10T17:54:50.633Z,8.02
2023-12-10T17:57:18.533Z,8.23
2023-12-10T17:59:46.611Z,7.28
2023-12-10T18:02:14.468Z,6.95
2023-12-10T18:04:42.403Z,9.05
2023-12-10T18:07:10.256Z,9.90
2023-12-10T18:09:39.564Z,7.43
2023-12-10T18:12:09.475Z,6.38
2023-12-10T18:17:05.404Z,7.95
2023-12-10T18:19:33.399Z,7.18
2023-12-10T18:22:01.499Z,6.55
2023-12-10T18:24:29.455Z,6.85
2023-12-10T18:26:58.689Z,7.50
2023-12-10T18:29:27.742Z,6.70
2023-12-10T18:31:55.736Z,7.77
2023-12-10T18:34:25.706Z,6.35
2023-12-10T18:36:53.920Z,7.00
2023-12-10T18:39:21.886Z,6.47
2023-12-10T18:41:50.571Z,6.68
2023-12-10T18:44:19.807Z,6.15
2023-12-10T18:46:47.913Z,6.40
2023-12-10T18:49:17.058Z,5.70
2023-12-10T18:51:45.340Z,5.70
2023-12-10T18:54:13.332Z,4.90
2023-12-10T18:56:41.240Z,5.75
2023-12-10T18:59:09.094Z,7.65
2023-12-10T19:01:38.810Z,6.35
2023-12-10T19:04:06.861Z,4.50
2023-12-10T19:06:34.809Z,3.72
2023-12-10T19:09:03.669Z,5.60
2023-12-10T19:11:31.632Z,5.30
2023-12-10T19:14:00.227Z,7.03
2023-12-10T19:16:28.307Z,5.45
2023-12-10T19:18:59.708Z,5.65
2023-12-10T19:21:28.294Z,5.80
2023-12-10T19:23:56.367Z,6.22
2023-12-10T19:26:24.347Z,7.50
2023-12-10T19:28:53.211Z,5.97
2023-12-10T19:31:25.077Z,7.63
2023-12-10T19:33:53.695Z,6.57
2023-12-10T19:36:23.079Z,6.20
2023-12-10T19:38:50.993Z,5.80
2023-12-10T19:41:18.890Z,6.32
2023-12-10T19:43:46.775Z,5.93
2023-12-10T19:46:14.736Z,4.72
2023-12-10T19:48:42.674Z,6.88
2023-12-10T19:51:10.620Z,4.43
2023-12-10T19:53:40.621Z,7.75
2023-12-10T19:56:11.613Z,4.82
2023-12-10T19:58:39.581Z,5.63
2023-12-10T20:01:07.756Z,4.22
2023-12-10T20:03:36.000Z,4.88
2023-12-10T20:06:04.270Z,5.57
2023-12-10T20:08:32.704Z,6.20
2023-12-10T20:11:02.184Z,6.47
2023-12-10T20:13:30.739Z,4.35
2023-12-10T20:15:59.019Z,3.60
2023-12-10T20:18:26.977Z,4.40
2023-12-10T20:20:55.690Z,4.10
2023-12-10T20:23:24.597Z,3.00
2023-12-10T20:25:53.071Z,4.35
2023-12-10T20:28:23.493Z,4.70
2023-12-10T20:30:51.568Z,3.67
2023-12-10T20:33:19.574Z,4.03
2023-12-10T20:35:48.837Z,5.32
2023-12-10T20:38:16.718Z,3.23
2023-12-10T20:40:48.585Z,2.85
2023-12-10T20:43:17.789Z,1.88
2023-12-10T20:45:47.061Z,4.25
2023-12-10T20:48:15.360Z,3.15
2023-12-10T20:50:43.341Z,3.85
2023-12-10T20:53:12.585Z,2.33
2023-12-10T20:55:40.476Z,2.87
2023-12-10T20:58:09.926Z,3.40
2023-12-10T21:00:39.180Z,4.07
2023-12-10T21:03:09.116Z,2.95
2023-12-10T21:08:06.587Z,2.87
2023-12-10T21:10:34.444Z,2.45
2023-12-10T21:13:02.380Z,2.97
2023-12-10T21:15:30.292Z,3.22
2023-12-10T21:17:58.479Z,1.83
2023-12-10T21:20:28.104Z,2.38
2023-12-10T21:22:56.157Z,2.03
2023-12-10T21:25:24.094Z,3.13
2023-12-10T21:27:52.049Z,2.80
2023-12-10T21:30:19.939Z,2.35
2023-12-10T21:32:47.821Z,2.50
2023-12-10T21:35:16.226Z,1.83
2023-12-10T21:37:45.706Z,1.75
2023-12-10T21:40:14.689Z,3.13
2023-12-10T21:42:42.939Z,2.23
2023-12-10T21:45:11.670Z,1.75
2023-12-10T21:47:39.773Z,2.55
2023-12-10T21:50:08.541Z,3.92
2023-12-10T21:52:36.456Z,2.42
2023-12-10T21:55:06.427Z,2.38
2023-12-10T22:00:02.647Z,1.52
2023-12-10T22:02:30.500Z,2.33
2023-12-10T22:04:58.433Z,2.20
2023-12-10T22:07:26.337Z,3.40
2023-12-10T22:09:54.235Z,2.08
2023-12-10T22:12:23.799Z,3.00
2023-12-10T22:14:54.104Z,3.17
2023-12-10T22:17:22.698Z,2.33
2023-12-10T22:19:50.614Z,1.67
2023-12-10T22:22:18.717Z,2.67
2023-12-10T22:24:46.597Z,3.38
2023-12-10T22:27:14.509Z,2.88
2023-12-10T22:29:43.948Z,1.85
2023-12-10T22:32:11.810Z,3.97
2023-12-10T22:34:39.739Z,1.55
2023-12-10T22:37:07.681Z,2.00
2023-12-10T22:39:35.626Z,1.50
2023-12-10T22:42:03.523Z,2.08
2023-12-10T22:44:31.395Z,1.77
2023-12-10T22:47:00.732Z,1.58
2023-12-10T22:49:28.761Z,1.50
2023-12-10T22:51:56.738Z,2.25
2023-12-10T22:54:24.635Z,3.45
2023-12-10T22:56:52.512Z,1.88
2023-12-10T22:59:20.409Z,2.00
2023-12-10T23:01:49.092Z,3.33
2023-12-10T23:04:18.571Z,1.67
2023-12-10T23:06:46.595Z,2.85
2023-12-10T23:09:14.538Z,2.25
2023-12-10T23:11:45.437Z,1.58
2023-12-10T23:14:13.346Z,1.92
2023-12-10T23:16:41.610Z,1.55
2023-12-10T23:19:09.816Z,2.28
2023-12-10T23:21:39.310Z,1.38
2023-12-10T23:24:07.679Z,2.45
2023-12-10T23:26:36.295Z,1.73
2023-12-10T23:29:05.698Z,1.50
2023-12-10T23:31:33.647Z,2.03
2023-12-10T23:34:01.934Z,3.60
2023-12-10T23:36:29.847Z,1.48
2023-12-10T23:38:59.029Z,1.33
2023-12-10T23:41:26.908Z,2.20
2023-12-10T23:43:55.603Z,1.95
2023-12-10T23:46:23.480Z,3.17
2023-12-10T23:48:51.441Z,2.75
2023-12-10T23:51:20.264Z,1.50
2023-12-10T23:53:48.142Z,2.20
2023-12-10T23:56:17.600Z,1.83
2023-12-10T23:58:45.589Z,5.38
